createdAt,value
2018-01-21T00:01:03.329Z,-0.77
2018-01-21T00:03:30.896Z,-0.82
2018-01-21T00:05:58.474Z,-0.82
2018-01-21T00:08:26.112Z,-0.71
2018-01-21T00:10:53.723Z,-0.50
2018-01-21T00:13:21.347Z,-0.60
2018-01-21T00:15:48.936Z,-0.53
2018-01-21T00:18:16.533Z,-0.26
2018-01-21T00:20:44.113Z,-0.24
2018-01-21T00:23:12.344Z,-0.44
2018-01-21T00:25:40.226Z,-0.60
2018-01-21T00:28:07.838Z,-0.56
2018-01-21T00:30:35.452Z,-0.55
2018-01-21T00:33:03.063Z,-0.50
2018-01-21T00:35:30.674Z,-0.49
2018-01-21T00:37:58.262Z,-0.47
2018-01-21T00:40:25.963Z,-0.47
2018-01-21T00:42:53.548Z,-0.34
2018-01-21T00:45:21.204Z,-0.20
2018-01-21T00:47:48.801Z,-0.11
2018-01-21T00:50:16.483Z,-0.05
2018-01-21T00:52:44.141Z,-0.05
2018-01-21T00:55:11.781Z,0.00
2018-01-21T00:57:39.340Z,-0.12
2018-01-21T01:00:06.924Z,-0.24
2018-01-21T01:02:34.480Z,-0.27
2018-01-21T01:05:02.158Z,-0.29
2018-01-21T01:07:29.728Z,-0.21
2018-01-21T01:09:57.307Z,-0.09
2018-01-21T01:12:24.924Z,0.02
2018-01-21T01:14:52.561Z,-0.01
2018-01-21T01:17:20.126Z,-0.06
2018-01-21T01:19:47.703Z,-0.15
2018-01-21T01:22:15.470Z,-0.27
2018-01-21T01:24:43.048Z,-0.30
2018-01-21T01:27:11.847Z,-0.34
2018-01-21T01:29:39.538Z,-0.29
2018-01-21T01:32:08.450Z,-0.28
2018-01-21T01:34:36.039Z,-0.34
2018-01-21T01:37:03.653Z,-0.39
2018-01-21T01:39:31.370Z,-0.33
2018-01-21T01:41:58.977Z,-0.28
2018-01-21T01:44:26.531Z,-0.35
2018-01-21T01:46:54.340Z,-0.34
2018-01-21T01:49:22.094Z,-0.31
2018-01-21T01:51:49.786Z,-0.27
2018-01-21T01:54:17.360Z,-0.15
2018-01-21T01:56:44.974Z,-0.04
2018-01-21T01:59:12.713Z,-0.15
2018-01-21T02:01:40.291Z,-0.11
2018-01-21T02:04:07.912Z,-0.02
2018-01-21T02:06:35.697Z,0.01
2018-01-21T02:09:03.556Z,0.11
2018-01-21T02:11:31.955Z,0.11
2018-01-21T02:13:59.512Z,-0.07
2018-01-21T02:16:27.556Z,-0.20
2018-01-21T02:18:55.130Z,-0.22
2018-01-21T02:21:23.067Z,-0.17
2018-01-21T02:23:51.111Z,-0.26
2018-01-21T02:26:18.664Z,-0.30
2018-01-21T02:28:46.227Z,-0.26
2018-01-21T02:31:14.142Z,-0.12
2018-01-21T02:33:41.805Z,0.01
2018-01-21T02:36:09.423Z,-0.11
2018-01-21T02:38:39.736Z,-0.13
2018-01-21T02:41:07.475Z,-0.07
2018-01-21T02:43:35.243Z,-0.12
2018-01-21T02:46:02.836Z,0.01
2018-01-21T02:48:30.438Z,-0.15
2018-01-21T02:50:58.022Z,-0.18
2018-01-21T02:53:25.604Z,-0.23
2018-01-21T02:55:53.531Z,-0.28
2018-01-21T02:58:21.088Z,-0.31
2018-01-21T03:00:48.671Z,-0.33
2018-01-21T03:03:17.051Z,-0.18
2018-01-21T03:05:46.127Z,-0.28
2018-01-21T03:08:13.713Z,-0.38
2018-01-21T03:10:41.397Z,-0.37
2018-01-21T03:13:09.432Z,-0.24
2018-01-21T03:15:37.297Z,-0.12
2018-01-21T03:18:06.369Z,-0.19
2018-01-21T03:20:34.168Z,-0.26
2018-01-21T03:23:01.754Z,-0.29
2018-01-21T03:25:29.784Z,-0.18
2018-01-21T03:27:57.760Z,-0.07
2018-01-21T03:30:25.785Z,0.05
2018-01-21T03:32:53.377Z,-0.04
2018-01-21T03:35:21.112Z,-0.10
2018-01-21T03:37:48.717Z,-0.02
2018-01-21T03:40:16.304Z,0.06
2018-01-21T03:42:43.875Z,-0.09
2018-01-21T03:45:12.032Z,-0.03
2018-01-21T03:47:39.580Z,0.02
2018-01-21T03:50:07.147Z,0.08
2018-01-21T03:52:34.861Z,0.05
2018-01-21T03:55:02.438Z,0.11
2018-01-21T03:57:30.519Z,0.08
2018-01-21T03:59:58.422Z,0.03
2018-01-21T04:02:26.005Z,-0.05
2018-01-21T04:04:53.569Z,-0.17
2018-01-21T04:07:21.218Z,-0.24
2018-01-21T04:09:49.108Z,-0.15
2018-01-21T04:12:16.674Z,-0.01
2018-01-21T04:14:44.262Z,-0.06
2018-01-21T04:17:12.277Z,-0.18
2018-01-21T04:19:39.902Z,-0.27
2018-01-21T04:22:13.275Z,-0.30
2018-01-21T04:24:40.846Z,-0.30
2018-01-21T04:27:09.050Z,-0.30
2018-01-21T04:29:37.011Z,-0.27
2018-01-21T04:32:04.609Z,-0.16
2018-01-21T04:34:32.214Z,-0.10
2018-01-21T04:37:00.697Z,-0.11
2018-01-21T04:39:30.480Z,-0.09
2018-01-21T04:41:58.091Z,-0.18
2018-01-21T04:44:33.559Z,-0.23
2018-01-21T04:47:02.081Z,-0.22
2018-01-21T04:49:29.686Z,-0.23
2018-01-21T04:51:57.264Z,-0.18
2018-01-21T04:54:32.791Z,-0.03
2018-01-21T04:57:00.392Z,0.02
2018-01-21T04:59:27.987Z,-0.11
2018-01-21T05:01:55.599Z,-0.05
2018-01-21T05:04:23.178Z,-0.03
2018-01-21T05:06:50.750Z,-0.07
2018-01-21T05:09:18.339Z,-0.05
2018-01-21T05:11:46.002Z,-0.05
2018-01-21T05:14:13.652Z,-0.01
2018-01-21T05:16:41.416Z,0.06
2018-01-21T05:19:10.237Z,0.13
2018-01-21T05:21:37.888Z,0.17
2018-01-21T05:24:05.517Z,0.12
2018-01-21T05:26:33.112Z,0.15
2018-01-21T05:29:00.749Z,0.14
2018-01-21T05:31:29.042Z,0.07
2018-01-21T05:33:56.812Z,0.10
2018-01-21T05:36:24.496Z,0.07
2018-01-21T05:38:52.116Z,0.01
2018-01-21T05:41:19.692Z,-0.11
2018-01-21T05:43:47.359Z,-0.11
2018-01-21T05:46:15.121Z,-0.09
2018-01-21T05:48:42.758Z,-0.01
2018-01-21T05:51:11.329Z,0.06
2018-01-21T05:53:38.945Z,0.18
2018-01-21T05:56:06.553Z,0.26
2018-01-21T05:58:34.175Z,0.14
2018-01-21T06:01:01.726Z,0.03
2018-01-21T06:03:29.440Z,-0.06
2018-01-21T06:05:57.250Z,-0.17
2018-01-21T06:08:26.329Z,-0.17
2018-01-21T06:10:53.937Z,-0.22
2018-01-21T06:13:21.882Z,-0.24
2018-01-21T06:15:49.582Z,-0.18
2018-01-21T06:18:17.286Z,-0.17
2018-01-21T06:20:45.114Z,-0.11
2018-01-21T06:23:12.714Z,-0.09
2018-01-21T06:25:40.307Z,-0.16
2018-01-21T06:28:07.956Z,-0.16
2018-01-21T06:30:35.572Z,-0.16
2018-01-21T06:33:03.261Z,-0.07
2018-01-21T06:35:32.027Z,-0.09
2018-01-21T06:37:59.645Z,-0.09
2018-01-21T06:40:29.070Z,-0.13
2018-01-21T06:42:56.723Z,-0.12
2018-01-21T06:45:24.346Z,-0.10
2018-01-21T06:47:52.281Z,-0.17
2018-01-21T06:50:20.018Z,-0.20
2018-01-21T06:52:47.701Z,-0.20
2018-01-21T06:55:15.341Z,-0.23
2018-01-21T06:57:42.982Z,-0.21
2018-01-21T07:00:10.546Z,-0.20
2018-01-21T07:02:38.317Z,-0.10
2018-01-21T07:05:06.373Z,0.03
2018-01-21T07:07:35.536Z,0.14
2018-01-21T07:10:03.225Z,0.29
2018-01-21T07:12:32.157Z,0.11
2018-01-21T07:15:02.165Z,0.07
2018-01-21T07:17:31.324Z,0.02
2018-01-21T07:20:00.691Z,0.12
2018-01-21T07:22:28.247Z,0.12
2018-01-21T07:24:55.815Z,0.00
2018-01-21T07:27:23.617Z,-0.06
2018-01-21T07:29:51.195Z,-0.04
2018-01-21T07:32:18.780Z,-0.06
2018-01-21T07:34:46.435Z,-0.10
2018-01-21T07:37:14.290Z,-0.10
2018-01-21T07:39:43.831Z,-0.06
2018-01-21T07:42:13.256Z,-0.15
2018-01-21T07:44:40.949Z,-0.18
2018-01-21T07:47:08.749Z,-0.15
2018-01-21T07:49:38.209Z,-0.09
2018-01-21T07:52:05.772Z,-0.05
2018-01-21T07:54:34.482Z,-0.01
2018-01-21T07:57:02.312Z,0.03
2018-01-21T07:59:29.901Z,0.05
2018-01-21T08:01:57.468Z,0.19
2018-01-21T08:04:25.928Z,0.24
2018-01-21T08:09:44.075Z,0.22
2018-01-21T08:12:11.885Z,0.32
2018-01-21T08:14:39.428Z,0.35
2018-01-21T08:17:07.635Z,0.35
2018-01-21T08:19:35.178Z,0.35
2018-01-21T08:22:02.716Z,0.37
2018-01-21T08:24:30.271Z,0.46
2018-01-21T08:26:57.829Z,0.48
2018-01-21T08:29:26.612Z,0.51
2018-01-21T08:31:54.180Z,0.50
2018-01-21T08:34:28.281Z,0.54
2018-01-21T08:37:01.475Z,0.55
2018-01-21T08:39:34.617Z,0.56
2018-01-21T08:42:03.074Z,0.59
2018-01-21T08:44:32.142Z,0.52
2018-01-21T08:46:59.706Z,0.58
2018-01-21T08:49:27.377Z,0.56
2018-01-21T08:51:54.967Z,0.49
2018-01-21T08:54:23.644Z,0.58
2018-01-21T08:56:51.298Z,0.57
2018-01-21T08:59:19.019Z,0.64
2018-01-21T09:01:46.762Z,0.62
2018-01-21T09:04:14.365Z,0.60
2018-01-21T09:06:41.923Z,0.58
2018-01-21T09:09:09.533Z,0.69
2018-01-21T09:11:37.081Z,0.71
2018-01-21T09:14:04.662Z,0.69
2018-01-21T09:16:32.245Z,0.79
2018-01-21T09:18:59.806Z,0.79
2018-01-21T09:21:29.068Z,0.82
2018-01-21T09:23:56.679Z,0.87
2018-01-21T09:26:24.792Z,0.83
2018-01-21T09:28:52.341Z,0.84
2018-01-21T09:31:19.963Z,0.91
2018-01-21T09:33:47.520Z,0.93
2018-01-21T09:36:15.075Z,0.93
2018-01-21T09:38:42.658Z,1.00
2018-01-21T09:41:11.065Z,1.02
2018-01-21T09:43:38.677Z,1.00
2018-01-21T09:46:06.266Z,0.89
2018-01-21T09:48:33.875Z,0.89
2018-01-21T09:51:01.442Z,0.84
2018-01-21T09:53:29.236Z,0.87
2018-01-21T09:55:56.873Z,0.87
2018-01-21T09:58:24.981Z,0.78
2018-01-21T10:00:52.561Z,0.83
2018-01-21T10:03:21.666Z,0.81
2018-01-21T10:05:49.281Z,0.78
2018-01-21T10:08:16.875Z,0.82
2018-01-21T10:10:44.432Z,0.91
2018-01-21T10:13:12.773Z,0.98
2018-01-21T10:15:40.383Z,1.09
2018-01-21T10:18:07.955Z,1.26
2018-01-21T10:20:35.494Z,1.33
2018-01-21T10:23:03.042Z,1.35
2018-01-21T10:25:30.610Z,1.38
2018-01-21T10:27:58.146Z,1.32
2018-01-21T10:33:15.786Z,1.25
2018-01-21T10:35:43.320Z,1.32
2018-01-21T10:38:11.004Z,1.33
2018-01-21T10:40:38.610Z,1.34
2018-01-21T10:43:07.183Z,1.29
2018-01-21T10:45:35.888Z,1.25
2018-01-21T10:48:03.485Z,1.12
2018-01-21T10:50:31.972Z,1.15
2018-01-21T10:52:59.534Z,1.20
2018-01-21T10:55:27.142Z,1.21
2018-01-21T10:57:54.690Z,1.37
2018-01-21T11:00:22.375Z,1.37
2018-01-21T11:02:51.045Z,1.33
2018-01-21T11:05:19.067Z,1.31
2018-01-21T11:07:46.631Z,1.35
2018-01-21T11:10:14.755Z,1.29
2018-01-21T11:12:47.477Z,1.33
2018-01-21T11:15:15.262Z,1.44
2018-01-21T11:17:42.962Z,1.36
2018-01-21T11:20:13.175Z,1.41
2018-01-21T11:22:40.755Z,1.32
2018-01-21T11:25:08.490Z,1.18
2018-01-21T11:27:36.067Z,1.29
2018-01-21T11:30:03.646Z,1.40
2018-01-21T11:32:31.548Z,1.29
2018-01-21T11:35:02.077Z,1.27
2018-01-21T11:37:35.153Z,1.18
2018-01-21T11:40:10.752Z,1.23
2018-01-21T11:42:38.433Z,1.25
2018-01-21T11:45:06.173Z,1.28
2018-01-21T11:47:35.134Z,1.23
2018-01-21T11:50:02.721Z,1.26
2018-01-21T11:52:36.114Z,1.29
2018-01-21T11:55:04.656Z,1.22
2018-01-21T11:57:39.672Z,1.17
2018-01-21T12:00:10.771Z,1.14
2018-01-21T12:02:38.547Z,1.09
2018-01-21T12:05:06.138Z,1.05
2018-01-21T12:07:33.850Z,1.15
2018-01-21T12:10:01.431Z,1.11
2018-01-21T12:12:28.990Z,1.12
2018-01-21T12:14:56.532Z,1.15
2018-01-21T12:17:24.103Z,1.16
2018-01-21T12:19:51.685Z,1.19
2018-01-21T12:22:28.215Z,1.17
2018-01-21T12:24:55.811Z,1.17
2018-01-21T12:27:25.462Z,1.27
2018-01-21T12:29:55.501Z,1.28
2018-01-21T12:32:24.972Z,1.19
2018-01-21T12:34:52.544Z,1.11
2018-01-21T12:37:20.160Z,1.13
2018-01-21T12:39:47.738Z,1.14
2018-01-21T12:42:15.316Z,1.18
2018-01-21T12:44:42.924Z,1.20
2018-01-21T12:47:10.799Z,1.23
2018-01-21T12:49:38.431Z,1.30
2018-01-21T12:52:06.136Z,1.31
2018-01-21T12:54:33.753Z,1.38
2018-01-21T12:57:01.301Z,1.41
2018-01-21T12:59:28.969Z,1.55
2018-01-21T13:01:56.602Z,1.42
2018-01-21T13:04:25.176Z,1.46
2018-01-21T13:06:52.784Z,1.45
2018-01-21T13:09:20.608Z,1.36
2018-01-21T13:11:48.349Z,1.32
2018-01-21T13:14:16.021Z,1.30
2018-01-21T13:16:43.629Z,1.24
2018-01-21T13:19:12.067Z,1.17
2018-01-21T13:21:39.693Z,1.10
2018-01-21T13:26:57.561Z,1.29
2018-01-21T13:29:25.768Z,1.39
2018-01-21T13:31:53.363Z,1.46
2018-01-21T13:34:21.517Z,1.56
2018-01-21T13:36:49.411Z,1.48
2018-01-21T13:39:18.051Z,1.39
2018-01-21T13:41:45.650Z,1.35
2018-01-21T13:44:13.260Z,1.36
2018-01-21T13:46:40.838Z,1.36
2018-01-21T13:49:08.893Z,1.32
2018-01-21T13:51:36.822Z,1.34
2018-01-21T13:54:04.635Z,1.23
2018-01-21T13:56:32.325Z,1.20
2018-01-21T13:59:01.606Z,1.05
2018-01-21T14:01:29.192Z,1.02
2018-01-21T14:03:56.797Z,1.16
2018-01-21T14:06:25.678Z,1.06
2018-01-21T14:08:53.278Z,1.03
2018-01-21T14:11:20.862Z,0.96
2018-01-21T14:13:48.445Z,0.91
2018-01-21T14:16:16.371Z,0.83
2018-01-21T14:18:45.017Z,0.78
2018-01-21T14:21:13.804Z,0.85
2018-01-21T14:23:41.601Z,0.79
2018-01-21T14:26:09.244Z,0.76
2018-01-21T14:28:36.867Z,0.78
2018-01-21T14:31:04.485Z,0.75
2018-01-21T14:33:32.212Z,0.84
2018-01-21T14:35:59.855Z,0.82
2018-01-21T14:38:28.258Z,0.77
2018-01-21T14:40:55.944Z,0.70
2018-01-21T14:43:25.106Z,0.63
2018-01-21T14:45:52.810Z,0.68
2018-01-21T14:48:20.500Z,0.63
2018-01-21T14:50:48.268Z,0.66
2018-01-21T14:53:15.946Z,0.68
2018-01-21T14:55:43.599Z,0.67
2018-01-21T14:58:11.253Z,0.62
2018-01-21T15:00:41.625Z,0.57
2018-01-21T15:03:10.750Z,0.61
2018-01-21T15:05:38.538Z,0.55
2018-01-21T15:08:06.829Z,0.48
2018-01-21T15:10:34.654Z,0.44
2018-01-21T15:13:03.922Z,0.44
2018-01-21T15:15:31.524Z,0.47
2018-01-21T15:18:00.344Z,0.44
2018-01-21T15:20:28.406Z,0.43
2018-01-21T15:22:56.000Z,0.47
2018-01-21T15:25:24.000Z,0.50
2018-01-21T15:27:52.470Z,0.50
2018-01-21T15:30:20.814Z,0.47
2018-01-21T15:32:49.417Z,0.49
2018-01-21T15:35:17.048Z,0.46
2018-01-21T15:37:44.838Z,0.39
2018-01-21T15:40:13.275Z,0.36
2018-01-21T15:42:41.910Z,0.34
2018-01-21T15:45:10.169Z,0.27
2018-01-21T15:50:28.278Z,0.18
2018-01-21T15:52:57.045Z,0.18
2018-01-21T15:55:25.554Z,0.17
2018-01-21T15:57:53.200Z,0.19
2018-01-21T16:00:21.326Z,0.16
2018-01-21T16:02:53.134Z,0.16
2018-01-21T16:05:23.142Z,0.15
2018-01-21T16:07:50.738Z,0.17
2018-01-21T16:10:19.606Z,0.18
2018-01-21T16:12:48.531Z,0.16
2018-01-21T16:15:16.915Z,0.06
2018-01-21T16:17:45.572Z,-0.01
2018-01-21T16:20:13.441Z,-0.03
2018-01-21T16:22:41.594Z,-0.05
2018-01-21T16:25:10.031Z,-0.06
2018-01-21T16:27:37.921Z,-0.04
2018-01-21T16:30:05.484Z,-0.03
2018-01-21T16:32:34.772Z,-0.02
2018-01-21T16:35:02.455Z,0.00
2018-01-21T16:37:42.304Z,-0.04
2018-01-21T16:40:09.926Z,-0.12
2018-01-21T16:42:37.528Z,-0.21
2018-01-21T16:45:05.533Z,-0.26
2018-01-21T16:47:33.125Z,-0.30
2018-01-21T16:50:00.750Z,-0.29
2018-01-21T16:52:28.406Z,-0.34
2018-01-21T16:54:55.993Z,-0.36
2018-01-21T16:57:24.003Z,-0.39
2018-01-21T16:59:51.768Z,-0.38
2018-01-21T17:02:19.397Z,-0.36
2018-01-21T17:04:46.976Z,-0.41
2018-01-21T17:07:14.547Z,-0.39
2018-01-21T17:09:43.314Z,-0.42
2018-01-21T17:12:11.381Z,-0.45
2018-01-21T17:14:38.974Z,-0.47
2018-01-21T17:17:07.681Z,-0.55
2018-01-21T17:19:35.334Z,-0.52
2018-01-21T17:22:02.938Z,-0.52
2018-01-21T17:24:30.521Z,-0.57
2018-01-21T17:26:58.124Z,-0.62
2018-01-21T17:29:25.929Z,-0.70
2018-01-21T17:31:53.531Z,-0.79
2018-01-21T17:34:21.128Z,-0.85
2018-01-21T17:36:48.754Z,-0.83
2018-01-21T17:39:16.336Z,-0.83
2018-01-21T17:41:43.934Z,-0.83
2018-01-21T17:44:11.570Z,-0.85
2018-01-21T17:46:49.951Z,-0.88
2018-01-21T17:49:18.472Z,-0.95
2018-01-21T17:51:46.136Z,-0.98
2018-01-21T17:54:13.723Z,-1.08
2018-01-21T17:56:41.291Z,-1.13
2018-01-21T17:59:08.878Z,-1.30
2018-01-21T18:01:36.550Z,-1.39
2018-01-21T18:04:04.119Z,-1.46
2018-01-21T18:06:31.731Z,-1.53
2018-01-21T18:08:59.470Z,-1.67
2018-01-21T18:11:27.611Z,-1.82
2018-01-21T18:13:55.239Z,-1.92
2018-01-21T18:16:23.746Z,-1.91
2018-01-21T18:18:51.320Z,-1.79
2018-01-21T18:24:09.572Z,-1.93
2018-01-21T18:26:37.143Z,-2.06
2018-01-21T18:29:04.798Z,-2.11
2018-01-21T18:31:32.455Z,-2.10
2018-01-21T18:34:00.039Z,-2.21
2018-01-21T18:36:27.586Z,-2.34
2018-01-21T18:38:55.734Z,-2.43
2018-01-21T18:41:23.518Z,-2.50
2018-01-21T18:43:51.118Z,-2.52
2018-01-21T18:46:18.737Z,-2.57
2018-01-21T18:48:46.297Z,-2.65
2018-01-21T18:51:13.882Z,-2.73
2018-01-21T18:53:41.503Z,-2.77
2018-01-21T18:56:09.148Z,-2.76
2018-01-21T18:58:36.706Z,-2.75
2018-01-21T19:01:04.371Z,-2.80
2018-01-21T19:03:32.818Z,-2.91
2018-01-21T19:06:02.831Z,-2.93
2018-01-21T19:08:30.582Z,-2.95
2018-01-21T19:10:58.187Z,-3.01
2018-01-21T19:13:26.234Z,-3.04
2018-01-21T19:15:56.002Z,-3.05
2018-01-21T19:18:23.661Z,-3.01
2018-01-21T19:20:51.282Z,-3.01
2018-01-21T19:23:19.477Z,-2.98
2018-01-21T19:25:47.406Z,-2.80
2018-01-21T19:28:15.178Z,-2.71
2018-01-21T19:30:42.750Z,-2.62
2018-01-21T19:33:10.908Z,-2.58
2018-01-21T19:35:41.049Z,-2.55
2018-01-21T19:38:08.942Z,-2.56
2018-01-21T19:40:42.019Z,-2.60
2018-01-21T19:43:18.100Z,-2.65
2018-01-21T19:45:46.291Z,-2.57
2018-01-21T19:48:13.973Z,-2.52
2018-01-21T19:50:42.344Z,-2.52
2018-01-21T19:53:11.119Z,-2.42
2018-01-21T19:55:40.675Z,-2.40
2018-01-21T19:58:11.498Z,-2.43
2018-01-21T20:00:41.834Z,-2.42
2018-01-21T20:03:10.400Z,-2.48
2018-01-21T20:05:37.998Z,-2.53
2018-01-21T20:08:05.639Z,-2.55
2018-01-21T20:10:33.211Z,-2.60
2018-01-21T20:13:07.817Z,-2.66
2018-01-21T20:15:35.577Z,-2.67
2018-01-21T20:18:03.400Z,-2.65
2018-01-21T20:20:30.992Z,-2.65
2018-01-21T20:22:58.583Z,-2.69
2018-01-21T20:25:26.166Z,-2.58
2018-01-21T20:27:53.796Z,-2.56
2018-01-21T20:30:21.405Z,-2.64
2018-01-21T20:32:48.998Z,-2.76
2018-01-21T20:35:16.598Z,-2.91
2018-01-21T20:37:44.404Z,-3.00
2018-01-21T20:40:12.399Z,-2.94
2018-01-21T20:42:39.983Z,-3.11
2018-01-21T20:45:07.680Z,-3.43
2018-01-21T20:47:35.676Z,-3.37
2018-01-21T20:50:03.317Z,-3.41
2018-01-21T20:52:36.553Z,-3.47
2018-01-21T20:55:04.231Z,-3.55
2018-01-21T20:57:32.137Z,-3.64
2018-01-21T21:00:00.360Z,-3.77
2018-01-21T21:02:28.018Z,-3.74
2018-01-21T21:04:55.693Z,-3.77
2018-01-21T21:07:25.215Z,-3.79
2018-01-21T21:09:52.946Z,-3.81
2018-01-21T21:12:20.522Z,-3.84
2018-01-21T21:14:48.158Z,-3.83
2018-01-21T21:17:15.741Z,-3.81
2018-01-21T21:19:46.234Z,-3.84
2018-01-21T21:22:15.927Z,-3.90
2018-01-21T21:24:43.911Z,-3.97
2018-01-21T21:27:14.699Z,-3.95
2018-01-21T21:29:49.157Z,-3.96
2018-01-21T21:32:16.793Z,-4.01
2018-01-21T21:34:44.988Z,-4.04
2018-01-21T21:40:03.722Z,-4.05
2018-01-21T21:42:31.376Z,-4.04
2018-01-21T21:44:59.002Z,-4.11
2018-01-21T21:47:30.017Z,-4.16
2018-01-21T21:49:58.761Z,-4.15
2018-01-21T21:52:36.157Z,-4.15
2018-01-21T21:55:07.466Z,-4.15
2018-01-21T21:57:34.999Z,-4.23
2018-01-21T22:00:02.689Z,-4.34
2018-01-21T22:02:30.376Z,-4.15
2018-01-21T22:04:58.064Z,-4.23
2018-01-21T22:10:16.006Z,-4.34
2018-01-21T22:12:43.928Z,-4.47
2018-01-21T22:15:12.218Z,-4.59
2018-01-21T22:17:39.887Z,-4.69
2018-01-21T22:20:07.466Z,-4.78
2018-01-21T22:22:35.121Z,-4.91
2018-01-21T22:25:02.718Z,-4.94
2018-01-21T22:27:30.601Z,-5.02
2018-01-21T22:29:58.298Z,-5.06
2018-01-21T22:32:25.951Z,-5.04
2018-01-21T22:34:53.829Z,-4.86
2018-01-21T22:37:21.849Z,-4.73
2018-01-21T22:39:49.497Z,-4.73
2018-01-21T22:42:17.098Z,-4.57
2018-01-21T22:44:44.809Z,-4.46
2018-01-21T22:47:12.438Z,-4.52
2018-01-21T22:49:40.049Z,-4.61
2018-01-21T22:52:07.877Z,-4.68
2018-01-21T22:54:35.510Z,-4.80
2018-01-21T22:57:03.147Z,-4.79
2018-01-21T22:59:30.826Z,-4.74
2018-01-21T23:02:01.294Z,-4.74
2018-01-21T23:04:28.894Z,-4.71
2018-01-21T23:06:56.546Z,-4.67
2018-01-21T23:09:24.224Z,-4.48
2018-01-21T23:11:51.838Z,-4.38
2018-01-21T23:14:20.857Z,-4.23
2018-01-21T23:16:48.454Z,-4.12
2018-01-21T23:19:16.072Z,-4.09
2018-01-21T23:21:43.696Z,-3.99
2018-01-21T23:24:14.111Z,-3.90
2018-01-21T23:26:45.713Z,-3.81
2018-01-21T23:29:13.410Z,-3.61
2018-01-21T23:31:43.295Z,-3.62
2018-01-21T23:34:12.212Z,-3.56
2018-01-21T23:36:39.955Z,-3.47
2018-01-21T23:39:07.884Z,-3.57
2018-01-21T23:41:35.575Z,-3.47
2018-01-21T23:44:03.210Z,-3.61
2018-01-21T23:46:31.590Z,-3.69
2018-01-21T23:49:01.661Z,-3.66
2018-01-21T23:51:30.023Z,-3.52
2018-01-21T23:53:57.660Z,-3.38
2018-01-21T23:56:26.195Z,-3.36
2018-01-21T23:58:58.282Z,-3.30
